Time;durP1;ratioP1;P1;durP2;ratioP2;P2;SDS_P1;SDS_P2;PMS_P1;PMS_P2;Temp;Humidity;BMP_temperature;BMP_pressure;BME280_temperature;BME280_humidity;BME280_pressure;Samples;Min_cycle;Max_cycle;Signal;HPM_P1;HPM_P2
2024/03/16 00:01:51;;;;;;;4.25;1.10;;;9.40;99.90;;;;;;5055829;28;20493;-66
2024/03/16 00:04:18;;;;;;;4.85;1.58;;;9.30;99.90;;;;;;5055767;28;20041;-66
2024/03/16 00:06:45;;;;;;;7.03;1.40;;;9.30;99.90;;;;;;5055508;28;20068;-66
2024/03/16 00:09:12;;;;;;;6.72;1.77;;;9.20;99.90;;;;;;5055452;28;20041;-67
2024/03/16 00:11:39;;;;;;;5.15;1.27;;;9.20;99.90;;;;;;5055803;28;20048;-66
2024/03/16 00:14:06;;;;;;;4.15;1.17;;;9.20;99.90;;;;;;5055700;28;20037;-65
2024/03/16 00:16:32;;;;;;;4.03;1.00;;;9.20;99.90;;;;;;5055029;28;20163;-65
2024/03/16 00:18:59;;;;;;;5.25;1.10;;;9.30;99.90;;;;;;5055174;28;20037;-64
2024/03/16 00:21:26;;;;;;;5.32;1.00;;;9.30;99.90;;;;;;5054824;28;20490;-65
2024/03/16 00:23:53;;;;;;;3.22;1.15;;;9.30;99.90;;;;;;5055400;28;20041;-65
2024/03/16 00:26:20;;;;;;;6.80;1.20;;;9.30;99.90;;;;;;5055344;28;20486;-66
2024/03/16 00:28:47;;;;;;;3.35;1.17;;;9.30;99.90;;;;;;5055554;28;20040;-66
2024/03/16 00:31:15;;;;;;;4.03;1.17;;;9.20;99.90;;;;;;5055042;28;20033;-64
2024/03/16 00:33:41;;;;;;;4.97;1.00;;;9.20;99.90;;;;;;5055275;28;20163;-64
2024/03/16 00:36:08;;;;;;;4.63;1.40;;;9.20;99.90;;;;;;5055177;28;20044;-65
2024/03/16 00:38:35;;;;;;;4.95;1.38;;;9.20;99.90;;;;;;5055322;28;20048;-64
2024/03/16 00:41:02;;;;;;;3.58;1.27;;;9.20;99.90;;;;;;5054933;28;20068;-65
2024/03/16 00:43:29;;;;;;;6.82;1.10;;;9.10;99.90;;;;;;5054808;28;20041;-65
2024/03/16 00:45:56;;;;;;;4.22;1.20;;;9.00;99.90;;;;;;5055221;28;20463;-65
2024/03/16 00:48:23;;;;;;;4.75;1.23;;;9.00;99.90;;;;;;5055096;28;20474;-65
2024/03/16 00:50:50;;;;;;;3.67;1.30;;;8.90;99.90;;;;;;5055336;28;20084;-64
2024/03/16 00:53:17;;;;;;;5.68;1.10;;;8.90;99.90;;;;;;5055063;28;20049;-63
2024/03/16 00:55:44;;;;;;;3.08;0.85;;;8.90;99.90;;;;;;5054941;28;20142;-66
2024/03/16 00:58:11;;;;;;;4.45;1.10;;;8.90;99.90;;;;;;5054777;28;20051;-65
2024/03/16 01:00:38;;;;;;;5.30;1.50;;;8.90;99.90;;;;;;5054849;28;20044;-65
2024/03/16 01:03:05;;;;;;;4.85;1.30;;;8.90;99.90;;;;;;5055075;28;20056;-66
2024/03/16 01:05:32;;;;;;;2.38;0.95;;;8.90;99.90;;;;;;5054677;28;20091;-67
2024/03/16 01:07:59;;;;;;;5.70;1.17;;;8.90;99.90;;;;;;5054681;28;20037;-66
2024/03/16 01:10:25;;;;;;;4.40;1.40;;;8.90;99.90;;;;;;5054597;28;20069;-66
2024/03/16 01:12:52;;;;;;;4.20;1.25;;;8.90;99.90;;;;;;5054348;28;20045;-67
2024/03/16 01:15:21;;;;;;;6.35;1.27;;;8.80;99.90;;;;;;5052956;28;20141;-67
2024/03/16 01:17:48;;;;;;;5.72;1.30;;;8.80;99.90;;;;;;5052777;28;20044;-67
2024/03/16 01:20:15;;;;;;;6.05;1.40;;;8.80;99.90;;;;;;5053491;28;20053;-67
2024/03/16 01:22:42;;;;;;;4.40;1.17;;;8.80;99.90;;;;;;5054285;28;20414;-66
2024/03/16 01:25:09;;;;;;;5.10;1.08;;;8.80;99.90;;;;;;5054616;28;20037;-67
2024/03/16 01:27:36;;;;;;;4.75;1.00;;;8.80;99.90;;;;;;5054335;28;20087;-66
2024/03/16 01:30:03;;;;;;;5.00;1.55;;;8.80;99.90;;;;;;5054056;28;20029;-66
2024/03/16 01:32:30;;;;;;;6.88;1.50;;;8.80;99.90;;;;;;5054301;28;20045;-66
2024/03/16 01:34:57;;;;;;;3.63;1.25;;;8.80;99.90;;;;;;5052952;28;20144;-66
2024/03/16 01:37:23;;;;;;;5.35;1.40;;;8.90;99.90;;;;;;5054087;28;20045;-66
2024/03/16 01:39:50;;;;;;;6.47;1.45;;;8.90;99.90;;;;;;5054717;28;20380;-67
2024/03/16 01:42:17;;;;;;;6.40;1.20;;;8.90;99.90;;;;;;5053313;28;20048;-66
2024/03/16 01:44:44;;;;;;;5.45;1.25;;;8.90;99.90;;;;;;5054149;28;20119;-67
2024/03/16 01:47:11;;;;;;;6.47;1.35;;;8.90;99.90;;;;;;5053863;28;20466;-66
2024/03/16 01:49:38;;;;;;;6.47;1.58;;;8.90;99.90;;;;;;5053947;28;20090;-66
2024/03/16 01:52:04;;;;;;;4.50;1.08;;;8.80;99.90;;;;;;5054136;28;20041;-66
2024/03/16 01:54:31;;;;;;;5.53;1.10;;;8.80;99.90;;;;;;5054210;28;20119;-66
2024/03/16 01:56:58;;;;;;;6.97;1.20;;;8.80;99.90;;;;;;5053803;28;20051;-67
2024/03/16 01:59:25;;;;;;;4.28;1.25;;;8.90;99.90;;;;;;5053954;28;20389;-67
2024/03/16 02:01:52;;;;;;;7.43;1.15;;;8.90;99.90;;;;;;5053976;28;20033;-65
2024/03/16 02:04:19;;;;;;;5.35;1.25;;;8.90;99.90;;;;;;5053931;28;20116;-64
2024/03/16 02:06:49;;;;;;;8.13;1.63;;;8.90;99.90;;;;;;5052402;28;20043;-65
2024/03/16 02:09:16;;;;;;;4.05;1.30;;;8.80;99.90;;;;;;5054004;28;20040;-64
2024/03/16 02:11:43;;;;;;;5.50;1.30;;;8.80;99.90;;;;;;5053841;28;20095;-65
2024/03/16 02:14:10;;;;;;;9.48;1.95;;;8.70;99.90;;;;;;5053650;28;20045;-64
2024/03/16 02:16:37;;;;;;;5.72;1.13;;;8.70;99.90;;;;;;5053417;28;20486;-65
2024/03/16 02:19:07;;;;;;;4.85;1.30;;;8.70;99.90;;;;;;5053724;28;20072;-65
2024/03/16 02:21:34;;;;;;;7.82;1.30;;;8.70;99.90;;;;;;5053962;28;20045;-65
2024/03/16 02:24:01;;;;;;;3.70;1.23;;;8.70;99.90;;;;;;5053255;28;20365;-65
2024/03/16 02:26:28;;;;;;;6.20;1.50;;;8.70;99.90;;;;;;5053614;28;20043;-64
2024/03/16 02:28:55;;;;;;;3.70;1.30;;;8.70;99.90;;;;;;5053600;28;20462;-64
2024/03/16 02:31:22;;;;;;;6.13;1.50;;;8.70;99.90;;;;;;5053804;28;20463;-65
2024/03/16 02:33:48;;;;;;;4.07;1.20;;;8.70;99.90;;;;;;5053692;28;20167;-64
2024/03/16 02:36:16;;;;;;;7.07;1.52;;;8.80;99.90;;;;;;5053261;28;20056;-65
2024/03/16 02:38:43;;;;;;;5.07;1.30;;;8.80;99.90;;;;;;5053548;28;20124;-65
2024/03/16 02:41:10;;;;;;;5.22;1.17;;;8.80;99.90;;;;;;5053210;28;20049;-65
2024/03/16 02:43:37;;;;;;;4.18;1.23;;;8.80;99.90;;;;;;5053548;28;20029;-65
2024/03/16 02:46:05;;;;;;;5.90;1.70;;;8.80;99.90;;;;;;5053250;28;20482;-64
2024/03/16 02:48:32;;;;;;;3.58;1.05;;;8.90;99.90;;;;;;5052805;28;20060;-65
2024/03/16 02:50:59;;;;;;;5.85;1.10;;;8.90;99.90;;;;;;5053101;28;20039;-65
2024/03/16 02:53:25;;;;;;;4.93;1.10;;;8.90;99.90;;;;;;5054394;28;20083;-65
2024/03/16 02:55:52;;;;;;;3.60;1.15;;;8.90;99.90;;;;;;5057146;28;20045;-65
2024/03/16 02:58:19;;;;;;;6.93;1.70;;;8.90;99.90;;;;;;5057268;28;20045;-65
2024/03/16 03:00:46;;;;;;;8.50;1.60;;;8.90;99.90;;;;;;5057072;28;20049;-65
2024/03/16 03:03:13;;;;;;;7.43;1.35;;;8.90;99.90;;;;;;5057012;28;20049;-65
2024/03/16 03:05:39;;;;;;;7.05;1.63;;;8.90;99.90;;;;;;5057145;28;20052;-65
2024/03/16 03:08:06;;;;;;;5.65;1.50;;;8.90;99.90;;;;;;5057022;28;20045;-65
2024/03/16 03:10:33;;;;;;;3.60;1.60;;;9.00;99.90;;;;;;5055463;28;20048;-64
2024/03/16 03:13:01;;;;;;;4.75;1.25;;;8.90;99.90;;;;;;5056894;28;20128;-64
2024/03/16 03:15:28;;;;;;;5.32;1.50;;;9.00;99.90;;;;;;5056452;28;20517;-64
2024/03/16 03:17:55;;;;;;;7.57;1.50;;;9.00;99.90;;;;;;5072395;28;20073;-64
2024/03/16 03:20:23;;;;;;;5.82;1.30;;;9.00;99.90;;;;;;5056809;28;20064;-64
2024/03/16 03:22:50;;;;;;;4.57;1.10;;;9.00;99.90;;;;;;5056828;28;20048;-64
2024/03/16 03:25:18;;;;;;;6.18;1.30;;;9.00;99.90;;;;;;5056805;28;20068;-64
2024/03/16 03:27:45;;;;;;;5.60;1.30;;;9.00;99.90;;;;;;5056753;28;20094;-64
2024/03/16 03:30:12;;;;;;;6.50;1.48;;;9.00;99.90;;;;;;5056801;28;20557;-64
2024/03/16 03:32:39;;;;;;;9.50;1.60;;;9.00;99.90;;;;;;5056815;28;20482;-64
2024/03/16 03:35:06;;;;;;;4.43;1.30;;;9.00;99.90;;;;;;5056546;28;20091;-64
2024/03/16 03:37:32;;;;;;;8.48;1.60;;;9.00;99.90;;;;;;5056374;28;20079;-64
2024/03/16 03:40:00;;;;;;;8.85;1.50;;;9.10;99.90;;;;;;5055318;28;20079;-64
2024/03/16 03:42:29;;;;;;;4.90;1.13;;;9.00;99.90;;;;;;5056622;28;20045;-65
2024/03/16 03:45:24;;;;;;;5.75;1.45;;;9.00;99.90;;;;;;5055997;28;20064;-64
2024/03/16 03:48:02;;;;;;;5.53;1.27;;;9.10;99.90;;;;;;5054959;28;20047;-65
2024/03/16 03:50:32;;;;;;;5.07;1.45;;;9.10;99.90;;;;;;5056483;28;20485;-65
2024/03/16 03:53:01;;;;;;;4.30;1.40;;;9.10;99.90;;;;;;5056112;28;20045;-64
2024/03/16 03:55:28;;;;;;;4.03;1.30;;;9.10;99.90;;;;;;5055786;28;20041;-64
2024/03/16 03:57:54;;;;;;;5.75;1.48;;;9.10;99.90;;;;;;5056142;28;20045;-64
2024/03/16 04:00:22;;;;;;;4.45;1.40;;;9.10;99.90;;;;;;5056155;28;20041;-64
2024/03/16 04:02:48;;;;;;;6.07;1.60;;;9.10;99.90;;;;;;5056171;28;20394;-64
2024/03/16 04:05:15;;;;;;;4.15;1.10;;;9.10;99.90;;;;;;5055128;28;20045;-64
2024/03/16 04:07:43;;;;;;;3.85;1.40;;;9.10;99.90;;;;;;5055871;28;20051;-64
2024/03/16 04:10:10;;;;;;;4.22;1.52;;;9.10;99.90;;;;;;5055941;28;20037;-65
2024/03/16 04:12:37;;;;;;;6.82;1.83;;;9.10;99.90;;;;;;5055779;28;20037;-65
2024/03/16 04:15:04;;;;;;;5.30;1.70;;;9.10;99.90;;;;;;5055567;28;20468;-64
2024/03/16 04:17:30;;;;;;;5.13;1.10;;;9.10;99.90;;;;;;5055814;28;20041;-65
2024/03/16 04:19:57;;;;;;;4.97;1.10;;;9.10;99.90;;;;;;5055598;28;20045;-64
2024/03/16 04:22:24;;;;;;;3.55;1.10;;;9.10;99.90;;;;;;5054469;28;20087;-64
2024/03/16 04:24:51;;;;;;;5.10;1.35;;;9.10;99.90;;;;;;5055541;28;20478;-64
2024/03/16 04:27:18;;;;;;;6.05;1.52;;;9.10;99.90;;;;;;5055705;28;20128;-64
2024/03/16 04:29:45;;;;;;;3.38;1.23;;;9.10;99.90;;;;;;5055636;28;20091;-64
2024/03/16 04:32:12;;;;;;;4.55;1.40;;;9.10;99.90;;;;;;5054370;28;20482;-64
2024/03/16 04:34:39;;;;;;;4.32;1.50;;;9.10;99.90;;;;;;5055566;28;20429;-64
2024/03/16 04:37:05;;;;;;;4.95;1.10;;;9.10;99.90;;;;;;5054184;28;20075;-64
2024/03/16 04:39:32;;;;;;;5.32;1.50;;;9.10;99.90;;;;;;5055501;28;20123;-64
2024/03/16 04:41:59;;;;;;;5.18;1.20;;;9.10;99.90;;;;;;5054252;28;20068;-64
2024/03/16 04:44:26;;;;;;;5.13;1.45;;;9.10;99.90;;;;;;5055123;28;20041;-65
2024/03/16 04:46:54;;;;;;;4.60;1.38;;;9.00;99.90;;;;;;5055095;28;20427;-65
2024/03/16 04:49:21;;;;;;;6.72;1.50;;;9.00;99.90;;;;;;5070736;28;20390;-65
2024/03/16 04:51:48;;;;;;;5.63;1.20;;;9.00;99.90;;;;;;5055190;28;20045;-65
2024/03/16 04:54:15;;;;;;;4.75;1.40;;;9.00;99.90;;;;;;5054992;28;20045;-65
2024/03/16 04:56:42;;;;;;;3.10;0.93;;;8.90;99.90;;;;;;5055124;28;20067;-65
2024/03/16 04:59:11;;;;;;;4.65;1.50;;;9.00;99.90;;;;;;5054895;28;20041;-64
2024/03/16 05:01:37;;;;;;;6.25;1.30;;;8.90;99.90;;;;;;5053828;28;20071;-65
2024/03/16 05:04:04;;;;;;;4.15;1.17;;;8.90;99.90;;;;;;5055089;28;20052;-65
2024/03/16 05:06:32;;;;;;;4.60;1.33;;;8.80;99.90;;;;;;5054796;28;20037;-64
2024/03/16 05:09:04;;;;;;;3.13;1.27;;;8.80;99.90;;;;;;5054739;28;20040;-64
2024/03/16 05:11:30;;;;;;;7.78;1.50;;;8.80;99.90;;;;;;5054698;28;20033;-64
2024/03/16 05:14:06;;;;;;;4.78;1.42;;;8.80;99.90;;;;;;5054487;28;20136;-64
2024/03/16 05:16:33;;;;;;;4.82;1.60;;;8.80;99.90;;;;;;5053032;28;20131;-63
2024/03/16 05:19:04;;;;;;;4.57;1.23;;;8.80;99.90;;;;;;5054083;28;20524;-63
2024/03/16 05:21:31;;;;;;;4.53;1.30;;;8.80;99.90;;;;;;5054455;28;20393;-64
2024/03/16 05:23:59;;;;;;;7.13;1.50;;;8.80;99.90;;;;;;5053930;28;20045;-63
2024/03/16 05:26:28;;;;;;;4.18;1.30;;;8.70;99.90;;;;;;5054431;28;20073;-63
2024/03/16 05:28:55;;;;;;;5.22;1.30;;;8.80;99.90;;;;;;5054166;28;20526;-63
2024/03/16 05:31:22;;;;;;;5.63;1.15;;;8.80;99.90;;;;;;5053915;28;20033;-63
2024/03/16 05:33:49;;;;;;;5.82;1.23;;;8.70;99.90;;;;;;5053812;28;20047;-64
2024/03/16 05:36:16;;;;;;;4.70;1.33;;;8.80;99.90;;;;;;5053863;28;20060;-63
2024/03/16 05:38:46;;;;;;;5.10;1.30;;;8.70;99.90;;;;;;5053803;28;20460;-63
2024/03/16 05:41:12;;;;;;;7.95;1.77;;;8.70;99.90;;;;;;5053879;28;20502;-63
2024/03/16 05:43:41;;;;;;;5.07;1.55;;;8.70;99.90;;;;;;5052206;28;20045;-63
2024/03/16 05:46:08;;;;;;;5.57;1.70;;;8.70;99.90;;;;;;5053539;28;20124;-63
2024/03/16 05:48:35;;;;;;;3.28;1.10;;;8.70;99.90;;;;;;5053664;28;20048;-63
2024/03/16 05:51:02;;;;;;;6.03;1.65;;;8.60;99.90;;;;;;5069051;28;20049;-62
2024/03/16 05:53:29;;;;;;;4.20;1.55;;;8.60;99.90;;;;;;5053591;28;20037;-63
2024/03/16 05:55:56;;;;;;;3.30;1.25;;;8.60;99.90;;;;;;5053900;28;20045;-62
2024/03/16 05:58:23;;;;;;;4.70;1.25;;;8.60;99.90;;;;;;5054030;28;20075;-62
2024/03/16 06:00:50;;;;;;;6.03;1.27;;;8.60;99.90;;;;;;5053667;28;20051;-62
2024/03/16 06:03:17;;;;;;;4.53;1.23;;;8.60;99.90;;;;;;5053513;28;20128;-62
2024/03/16 06:05:45;;;;;;;3.13;1.30;;;8.60;99.90;;;;;;5053630;28;20051;-62
2024/03/16 06:08:14;;;;;;;3.55;1.17;;;8.60;99.90;;;;;;5053946;28;20094;-62
2024/03/16 06:10:41;;;;;;;4.32;1.20;;;8.60;99.90;;;;;;5053856;28;20122;-62
2024/03/16 06:13:10;;;;;;;7.55;1.42;;;8.60;99.90;;;;;;5053664;28;20037;-62
2024/03/16 06:15:39;;;;;;;3.33;1.20;;;8.50;99.90;;;;;;5053321;28;20053;-61
2024/03/16 06:18:06;;;;;;;4.10;1.10;;;8.50;99.90;;;;;;5053745;28;20545;-62
2024/03/16 06:20:33;;;;;;;4.05;1.00;;;8.50;99.90;;;;;;5053807;28;20378;-62
2024/03/16 06:23:00;;;;;;;6.70;1.10;;;8.40;99.90;;;;;;5053552;28;20098;-61
2024/03/16 06:25:29;;;;;;;4.35;0.93;;;8.40;99.90;;;;;;5053699;28;20045;-62
2024/03/16 06:28:05;;;;;;;5.00;1.30;;;8.50;99.90;;;;;;5053210;28;20037;-62
2024/03/16 06:30:33;;;;;;;4.82;1.17;;;8.40;99.90;;;;;;5053417;28;20045;-61
2024/03/16 06:33:09;;;;;;;5.35;1.30;;;8.40;99.90;;;;;;5053748;28;20033;-63
2024/03/16 06:35:36;;;;;;;5.65;1.35;;;8.40;99.90;;;;;;5053510;28;20055;-62
2024/03/16 06:38:03;;;;;;;6.38;1.30;;;8.40;99.90;;;;;;5053618;28;20060;-62
2024/03/16 06:40:30;;;;;;;3.78;1.08;;;8.40;99.90;;;;;;5053313;28;20463;-62
2024/03/16 06:42:57;;;;;;;4.03;1.30;;;8.40;99.90;;;;;;5053345;28;20095;-62
2024/03/16 06:45:23;;;;;;;6.05;1.40;;;8.40;99.90;;;;;;5053338;28;20052;-62
2024/03/16 06:47:51;;;;;;;3.35;1.33;;;8.40;99.90;;;;;;5053357;28;20064;-62
2024/03/16 06:50:18;;;;;;;3.65;1.10;;;8.40;99.90;;;;;;5053275;28;20437;-62
2024/03/16 06:52:45;;;;;;;6.78;1.23;;;8.50;99.90;;;;;;5053309;28;20041;-63
2024/03/16 06:55:13;;;;;;;5.35;1.10;;;8.50;99.90;;;;;;5053029;28;20048;-62
2024/03/16 06:57:40;;;;;;;5.40;1.08;;;8.50;99.90;;;;;;5052999;28;20381;-62
2024/03/16 07:00:09;;;;;;;4.47;1.35;;;8.50;99.90;;;;;;5051952;28;20045;-62
2024/03/16 07:02:35;;;;;;;3.22;1.15;;;8.50;99.90;;;;;;5053194;28;20482;-62
2024/03/16 07:05:02;;;;;;;5.25;1.35;;;8.50;99.90;;;;;;5053141;28;20047;-62
2024/03/16 07:07:30;;;;;;;4.38;1.40;;;8.50;99.90;;;;;;5053374;28;20500;-62
2024/03/16 07:09:57;;;;;;;3.85;1.25;;;8.50;99.90;;;;;;5052021;28;20037;-62
2024/03/16 07:12:24;;;;;;;4.50;1.40;;;8.50;99.90;;;;;;5053361;28;20065;-62
2024/03/16 07:14:51;;;;;;;4.25;1.10;;;8.50;99.90;;;;;;5052888;28;20060;-62
2024/03/16 07:17:18;;;;;;;3.53;1.25;;;8.50;99.90;;;;;;5052978;28;20044;-62
2024/03/16 07:19:45;;;;;;;4.00;1.17;;;8.50;99.90;;;;;;5053305;28;20041;-62
2024/03/16 07:22:12;;;;;;;3.15;1.20;;;8.60;99.90;;;;;;5052896;28;20103;-63
2024/03/16 07:24:39;;;;;;;3.33;1.10;;;8.60;99.90;;;;;;5052985;28;20124;-62
2024/03/16 07:27:07;;;;;;;4.70;1.20;;;8.60;99.90;;;;;;5051577;28;20043;-63
2024/03/16 07:29:34;;;;;;;4.32;1.02;;;8.60;99.90;;;;;;5052825;28;20076;-62
2024/03/16 07:32:00;;;;;;;3.75;1.10;;;8.60;99.90;;;;;;5052875;28;20045;-62
2024/03/16 07:34:28;;;;;;;5.57;1.42;;;8.70;99.90;;;;;;5053398;28;20083;-62
2024/03/16 07:36:57;;;;;;;3.00;1.30;;;8.70;99.90;;;;;;5053097;28;20409;-62
2024/03/16 07:39:23;;;;;;;3.10;1.17;;;8.80;99.90;;;;;;5053018;28;20049;-62
2024/03/16 07:41:50;;;;;;;4.20;1.30;;;8.80;99.90;;;;;;5056136;28;20041;-63
2024/03/16 07:44:20;;;;;;;2.72;1.00;;;8.80;99.90;;;;;;5056211;28;20048;-63
2024/03/16 07:46:48;;;;;;;5.78;1.70;;;8.80;99.90;;;;;;5056143;28;20368;-63
2024/03/16 07:49:15;;;;;;;5.07;1.30;;;8.80;99.90;;;;;;5056206;28;20041;-63
2024/03/16 07:51:43;;;;;;;4.88;1.40;;;8.80;99.90;;;;;;5056172;28;20037;-63
2024/03/16 07:54:15;;;;;;;5.90;1.38;;;8.90;99.90;;;;;;5055947;28;20486;-63
2024/03/16 07:56:42;;;;;;;3.90;1.65;;;8.90;99.90;;;;;;5056377;28;20033;-62
2024/03/16 07:59:09;;;;;;;3.78;1.30;;;8.80;99.90;;;;;;5054970;28;20103;-62
2024/03/16 08:01:36;;;;;;;3.05;1.60;;;8.90;99.90;;;;;;5055106;28;20569;-62
2024/03/16 08:04:04;;;;;;;3.53;1.45;;;8.90;99.90;;;;;;5055755;28;20090;-63
2024/03/16 08:06:31;;;;;;;6.18;1.50;;;8.90;99.90;;;;;;5055967;28;20477;-63
2024/03/16 08:08:58;;;;;;;3.45;1.20;;;8.90;99.90;;;;;;5056124;28;20048;-63
2024/03/16 08:11:27;;;;;;;5.28;1.45;;;8.90;99.90;;;;;;5055824;28;20041;-63
2024/03/16 08:13:54;;;;;;;4.90;1.70;;;8.90;99.90;;;;;;5054435;28;20053;-63
2024/03/16 08:16:21;;;;;;;5.45;1.45;;;8.90;99.90;;;;;;5055198;28;20103;-63
2024/03/16 08:18:48;;;;;;;6.05;1.63;;;8.90;99.90;;;;;;5056028;28;20037;-63
2024/03/16 08:21:16;;;;;;;6.93;1.63;;;8.90;99.90;;;;;;5071229;28;20056;-62
2024/03/16 08:23:43;;;;;;;6.30;1.60;;;8.90;99.90;;;;;;5055544;28;20470;-62
2024/03/16 08:26:13;;;;;;;3.38;1.20;;;8.90;99.90;;;;;;5055261;28;20055;-64
2024/03/16 08:28:40;;;;;;;3.83;1.80;;;8.90;99.90;;;;;;5054050;28;20367;-62
2024/03/16 08:31:08;;;;;;;4.05;1.50;;;9.00;99.90;;;;;;5055745;28;20112;-65
2024/03/16 08:33:38;;;;;;;4.80;1.60;;;8.90;99.90;;;;;;5054380;28;20033;-65
2024/03/16 08:36:05;;;;;;;5.03;1.73;;;9.00;99.90;;;;;;5055355;28;20421;-64
2024/03/16 08:38:33;;;;;;;10.85;1.80;;;9.00;99.90;;;;;;5054173;28;20041;-63
2024/03/16 08:41:00;;;;;;;5.90;1.60;;;9.00;99.90;;;;;;5055416;28;20110;-62
2024/03/16 08:43:30;;;;;;;5.82;1.83;;;9.00;99.90;;;;;;5055490;28;20098;-63
2024/03/16 08:45:57;;;;;;;5.50;1.70;;;9.10;99.90;;;;;;5054888;28;20493;-63
2024/03/16 08:48:24;;;;;;;4.60;1.85;;;9.20;99.90;;;;;;5055067;28;20040;-63
2024/03/16 08:50:51;;;;;;;5.75;2.17;;;9.20;99.90;;;;;;5055095;28;20037;-63
2024/03/16 08:53:18;;;;;;;4.45;2.13;;;9.20;99.90;;;;;;5054207;28;20048;-63
2024/03/16 08:55:45;;;;;;;6.53;2.35;;;9.30;99.90;;;;;;5053349;28;20045;-63
2024/03/16 08:58:11;;;;;;;4.93;2.15;;;9.30;99.90;;;;;;5054757;28;20142;-63
2024/03/16 09:00:38;;;;;;;8.27;2.55;;;9.30;99.90;;;;;;5054952;28;20044;-63
2024/03/16 09:03:05;;;;;;;4.40;2.58;;;9.30;99.90;;;;;;5054983;28;20363;-63
2024/03/16 09:05:33;;;;;;;6.00;2.70;;;9.40;99.90;;;;;;5054601;28;20052;-62
2024/03/16 09:08:01;;;;;;;5.28;2.58;;;9.40;99.90;;;;;;5054639;28;20494;-63
2024/03/16 09:10:27;;;;;;;5.10;2.90;;;9.50;99.90;;;;;;5054504;28;20433;-65
2024/03/16 09:12:54;;;;;;;8.32;2.97;;;9.50;99.90;;;;;;5054825;28;20068;-63
2024/03/16 09:15:21;;;;;;;6.88;2.90;;;9.60;99.90;;;;;;5054203;28;20460;-63
2024/03/16 09:17:48;;;;;;;4.13;2.38;;;9.60;99.90;;;;;;5053450;28;20037;-63
2024/03/16 09:20:15;;;;;;;5.22;3.10;;;9.70;99.90;;;;;;5054845;28;20419;-63
2024/03/16 09:22:42;;;;;;;5.15;2.67;;;9.70;99.90;;;;;;5054801;28;20094;-63
2024/03/16 09:25:09;;;;;;;6.95;2.67;;;9.70;99.90;;;;;;5054159;28;20040;-63
2024/03/16 09:27:36;;;;;;;3.80;2.50;;;9.70;99.90;;;;;;5054551;28;20391;-64
2024/03/16 09:30:05;;;;;;;7.50;3.38;;;9.70;99.90;;;;;;5054322;28;20041;-65
2024/03/16 09:32:32;;;;;;;5.72;2.80;;;9.70;99.90;;;;;;5054532;28;20044;-65
2024/03/16 09:34:59;;;;;;;6.68;2.90;;;9.70;99.90;;;;;;5053834;28;20041;-65
2024/03/16 09:37:26;;;;;;;5.88;3.17;;;9.70;99.90;;;;;;5052450;28;20056;-63
2024/03/16 09:39:52;;;;;;;4.55;2.63;;;9.80;99.90;;;;;;5054388;28;20115;-64
2024/03/16 09:42:21;;;;;;;5.78;2.50;;;9.80;99.90;;;;;;5054176;28;20046;-64
2024/03/16 09:44:48;;;;;;;6.13;3.10;;;9.90;99.90;;;;;;5054194;28;20037;-63
2024/03/16 09:47:14;;;;;;;4.90;2.60;;;10.00;99.90;;;;;;5069596;28;20064;-64
2024/03/16 09:49:41;;;;;;;6.28;2.65;;;10.20;99.90;;;;;;5036629;28;20182;-63
2024/03/16 09:52:10;;;;;;;6.43;2.80;;;10.40;99.90;;;;;;5052594;28;20124;-64
2024/03/16 09:54:37;;;;;;;6.75;2.90;;;10.50;99.90;;;;;;5053116;28;20041;-63
2024/03/16 09:57:03;;;;;;;4.68;2.35;;;10.60;99.90;;;;;;5052679;28;20060;-63
2024/03/16 09:59:29;;;;;;;4.95;2.55;;;10.70;99.90;;;;;;5069384;28;20044;-63
2024/03/16 10:01:54;;;;;;;4.30;2.22;;;10.80;99.90;;;;;;5052267;28;20041;-63
2024/03/16 10:04:20;;;;;;;6.90;2.38;;;10.90;99.90;;;;;;5052119;28;20071;-63
2024/03/16 10:06:47;;;;;;;6.15;2.05;;;11.00;99.90;;;;;;5069252;28;20478;-63
2024/03/16 10:09:15;;;;;;;5.70;2.15;;;11.20;99.90;;;;;;5052490;28;20048;-63
2024/03/16 10:11:41;;;;;;;6.88;2.22;;;11.40;99.90;;;;;;5069139;28;20044;-63
2024/03/16 10:14:07;;;;;;;8.32;2.63;;;11.70;99.90;;;;;;5052351;28;20041;-63
2024/03/16 10:16:33;;;;;;;5.03;2.42;;;11.80;99.90;;;;;;5052235;28;20049;-63
2024/03/16 10:18:59;;;;;;;6.38;2.10;;;11.90;99.90;;;;;;5069417;28;20477;-62
2024/03/16 10:21:27;;;;;;;6.68;2.10;;;12.00;99.90;;;;;;5052532;28;20474;-62
2024/03/16 10:23:53;;;;;;;7.10;2.45;;;12.10;99.90;;;;;;5052433;28;20045;-63
2024/03/16 10:26:19;;;;;;;4.95;1.75;;;12.10;99.90;;;;;;5052067;28;20078;-63
2024/03/16 10:28:46;;;;;;;4.05;1.60;;;12.10;99.90;;;;;;5052662;28;20037;-66
2024/03/16 10:31:12;;;;;;;3.47;1.45;;;12.10;99.90;;;;;;5069146;28;20045;-65
2024/03/16 10:33:38;;;;;;;6.22;2.10;;;12.00;99.90;;;;;;5035744;28;20426;-65
2024/03/16 10:36:04;;;;;;;4.10;1.60;;;11.80;99.90;;;;;;5051969;28;20045;-62
2024/03/16 10:38:30;;;;;;;5.10;1.60;;;11.80;99.90;;;;;;5068803;28;20041;-63
2024/03/16 10:40:59;;;;;;;5.45;2.33;;;11.80;99.90;;;;;;5052132;28;20044;-62
2024/03/16 10:43:25;;;;;;;4.70;1.70;;;11.80;99.90;;;;;;5052114;28;20143;-63
2024/03/16 10:45:52;;;;;;;4.45;1.58;;;11.80;99.90;;;;;;5069020;28;20114;-62
2024/03/16 10:48:18;;;;;;;5.65;1.50;;;11.80;99.90;;;;;;5052062;28;20037;-62
2024/03/16 10:50:46;;;;;;;6.47;1.60;;;11.70;99.90;;;;;;5068673;28;20474;-62
2024/03/16 10:53:12;;;;;;;4.50;1.50;;;11.70;99.90;;;;;;5052350;28;20041;-62
2024/03/16 10:55:39;;;;;;;7.53;1.75;;;11.60;99.90;;;;;;5052234;28;20059;-62
2024/03/16 10:58:06;;;;;;;3.20;1.55;;;11.60;99.90;;;;;;5068558;28;20098;-63
2024/03/16 11:00:35;;;;;;;3.20;1.20;;;11.50;99.90;;;;;;5052292;28;20409;-63
2024/03/16 11:03:00;;;;;;;5.10;1.50;;;11.50;99.90;;;;;;5051840;28;20056;-63
2024/03/16 11:05:26;;;;;;;2.95;1.30;;;11.50;99.90;;;;;;5035191;28;20580;-63
2024/03/16 11:07:52;;;;;;;6.13;1.38;;;11.60;99.90;;;;;;5051953;28;20065;-63
2024/03/16 11:10:19;;;;;;;2.70;1.33;;;11.60;99.90;;;;;;5052018;28;20483;-63
2024/03/16 11:12:46;;;;;;;4.18;1.38;;;11.70;99.90;;;;;;5052226;28;20037;-62
2024/03/16 11:15:12;;;;;;;4.07;1.20;;;11.80;99.90;;;;;;5052641;28;20049;-63
2024/03/16 11:17:38;;;;;;;3.20;1.20;;;12.00;99.90;;;;;;5072800;28;20489;-64
2024/03/16 11:20:04;;;;;;;4.38;1.40;;;12.20;99.90;;;;;;5055564;28;20048;-64
2024/03/16 11:22:29;;;;;;;4.28;1.10;;;12.40;99.90;;;;;;5055482;28;20045;-64
2024/03/16 11:24:55;;;;;;;3.08;1.23;;;12.60;99.90;;;;;;5072172;28;20087;-65
2024/03/16 11:27:22;;;;;;;2.97;1.20;;;12.80;99.90;;;;;;5055514;28;20075;-64
2024/03/16 11:29:48;;;;;;;3.38;0.93;;;12.80;99.90;;;;;;5055133;28;20455;-65
2024/03/16 11:32:13;;;;;;;2.78;1.00;;;12.90;99.90;;;;;;5055639;28;20112;-64
2024/03/16 11:34:42;;;;;;;2.83;1.10;;;13.00;99.90;;;;;;5055759;28;20367;-64
2024/03/16 11:37:08;;;;;;;4.20;1.40;;;13.10;99.90;;;;;;5055292;28;20379;-64
2024/03/16 11:39:35;;;;;;;3.22;1.08;;;13.20;99.90;;;;;;5071986;28;20055;-65
2024/03/16 11:42:06;;;;;;;1.70;1.02;;;13.20;99.90;;;;;;5039023;28;20085;-64
2024/03/16 11:44:32;;;;;;;2.05;1.05;;;13.30;99.90;;;;;;5055000;28;20512;-65
2024/03/16 11:46:58;;;;;;;2.75;1.00;;;13.30;99.90;;;;;;5071661;28;20426;-65
2024/03/16 11:49:24;;;;;;;4.00;0.95;;;13.30;99.90;;;;;;5055272;28;20037;-66
2024/03/16 11:51:54;;;;;;;2.05;0.93;;;13.30;99.90;;;;;;5055104;28;20541;-65
2024/03/16 11:54:20;;;;;;;1.98;0.90;;;13.40;99.90;;;;;;5055437;28;20045;-64
2024/03/16 11:56:47;;;;;;;4.18;1.15;;;13.50;99.90;;;;;;5054706;28;20065;-65
2024/03/16 11:59:13;;;;;;;2.55;1.02;;;13.60;99.90;;;;;;5055147;28;20478;-65
2024/03/16 12:01:39;;;;;;;2.20;1.05;;;13.60;99.90;;;;;;5055007;28;20386;-65
2024/03/16 12:04:06;;;;;;;4.43;1.35;;;13.60;99.90;;;;;;5055079;28;20132;-65
2024/03/16 12:06:32;;;;;;;5.70;1.17;;;13.50;99.90;;;;;;5071370;28;20052;-65
2024/03/16 12:08:58;;;;;;;4.82;1.50;;;13.50;99.90;;;;;;5055097;28;20044;-64
2024/03/16 12:11:24;;;;;;;4.40;1.20;;;13.40;99.90;;;;;;5054956;28;20041;-64
2024/03/16 12:13:53;;;;;;;3.90;1.23;;;13.40;99.90;;;;;;5054813;28;20037;-64
2024/03/16 12:16:19;;;;;;;5.13;1.20;;;13.40;99.90;;;;;;5054374;28;20052;-64
2024/03/16 12:18:45;;;;;;;3.40;1.10;;;13.30;99.90;;;;;;5071685;28;20435;-63
2024/03/16 12:21:12;;;;;;;2.55;0.80;;;13.40;99.90;;;;;;5054710;28;20359;-64
2024/03/16 12:23:38;;;;;;;2.88;0.90;;;13.30;99.90;;;;;;5037975;28;20144;-64
2024/03/16 12:26:04;;;;;;;3.55;0.90;;;13.30;99.90;;;;;;5070521;28;20041;-64
2024/03/16 12:28:29;;;;;;;6.53;1.00;;;13.40;99.90;;;;;;5054417;28;20041;-62
2024/03/16 12:30:58;;;;;;;3.72;1.10;;;13.50;99.90;;;;;;5054444;28;20147;-62
2024/03/16 12:33:25;;;;;;;2.22;0.80;;;13.50;99.90;;;;;;5054285;28;20033;-63
2024/03/16 12:35:51;;;;;;;4.40;0.98;;;13.60;99.90;;;;;;5054287;28;20045;-62
2024/03/16 12:38:17;;;;;;;2.80;0.75;;;13.70;99.90;;;;;;5070523;28;20466;-62
2024/03/16 12:40:43;;;;;;;4.28;1.00;;;13.80;99.90;;;;;;5037974;28;20413;-62
2024/03/16 12:43:09;;;;;;;2.40;0.70;;;13.80;99.90;;;;;;5054357;28;20067;-62
2024/03/16 12:45:35;;;;;;;1.85;0.73;;;14.00;99.90;;;;;;5070607;28;20124;-63
2024/03/16 12:48:01;;;;;;;1.83;0.70;;;14.00;99.90;;;;;;5037370;28;20401;-62
2024/03/16 12:50:27;;;;;;;2.10;0.70;;;14.20;99.90;;;;;;5054263;28;20108;-62
2024/03/16 12:52:53;;;;;;;3.38;0.70;;;14.20;99.90;;;;;;5070579;28;20413;-62
2024/03/16 12:55:19;;;;;;;4.80;0.73;;;14.30;99.90;;;;;;5054052;28;20041;-63